Flight Track Log - Related Links

Times and Time Zones

All times are in EDT time to prevent confusion due to time zone crossing. See the KAP46 flight status page for this flight to view local times or setup timezone preferences in your user account.

Time Position Orientation Groundspeed Altitude Reporting Facility
EDT Latitude Longitude Course Direction KTS MPH feet Rate Location/Type
Fri 05:32:29 PM 44.5950 -74.7197 161° South 150 173 5,400  Level Boston Center
Fri 05:33:29 PM 44.5600 -74.7039 162° South 145 167 5,800 450 Climbing Boston Center
Fri 05:34:29 PM 44.5267 -74.7056 182° South 140 161 6,300 504 Climbing Boston Center
Fri 05:35:00 PM 44.7907 -74.7731 161° South  Level Estimated
Fri 05:35:28 PM 44.4889 -74.7100 185° South 135 155 6,800  Level Boston Center
Fri 05:36:28 PM 44.4514 -74.7114 182° South 140 161 7,000 99 Climbing Boston Center
Fri 05:37:29 PM 44.4097 -74.7186 187° South 145 167 7,000  Level Boston Center
Fri 05:38:30 PM 44.3656 -74.7283 189° South 150 173 7,000 -50 Level Boston Center
Fri 05:39:30 PM 44.3303 -74.7300 182° South 162 186 6,900 -50 Descending Boston Center
Fri 05:40:31 PM 44.2767 -74.6931 154° Southeast 162 186 6,900 51 Level Boston Center
Fri 05:41:28 PM 44.2358 -74.6567 147° Southeast 168 193 7,000  Climbing Boston Center
Fri 05:42:29 PM 44.1925 -74.6378 163° South 168 193 6,900  Descending Boston Center
Fri 05:43:29 PM 44.1511 -74.6217 164° South 163 188 7,000 49 Climbing Boston Center
Fri 05:44:31 PM 44.1119 -74.5972 156° South 163 188 7,000  Level Boston Center
Fri 05:45:28 PM 44.0706 -74.5725 157° South 163 188 7,000  Level Boston Center
Fri 05:46:29 PM 44.0339 -74.5394 147° Southeast 163 188 7,000  Level Boston Center
Fri 05:47:41 PM 43.9969 -74.5064 147° Southeast 158 182 7,000  Level Boston Center
Fri 05:48:42 PM 43.9472 -74.4844 162° South 158 182 7,000  Level Boston Center
Fri 05:49:40 PM 43.9081 -74.4689 164° South 152 175 7,000  Level Boston Center
Fri 05:50:41 PM 43.8625 -74.4442 159° South 158 182 7,000  Level Boston Center
Fri 05:51:41 PM 43.8211 -74.4286 165° South 158 182 7,000  Level Boston Center
Fri 05:52:42 PM 43.7775 -74.4128 165° South 163 188 7,000  Level Boston Center
Fri 05:53:42 PM 43.7361 -74.4056 173° South 163 188 7,000  Level Boston Center
Fri 05:54:42 PM 43.6944 -74.3956 170° South 163 188 7,000  Level Boston Center
Fri 05:55:40 PM 43.6489 -74.3914 176° South 163 188 7,000  Level Boston Center
Fri 05:56:40 PM 43.6050 -74.3869 176° South 163 188 7,000  Level Boston Center
Fri 05:57:41 PM 43.5636 -74.3800 173° South 158 182 7,000  Level Boston Center
Fri 05:58:42 PM 43.5200 -74.3728 173° South 158 182 7,000  Level Boston Center
Fri 05:59:40 PM 43.4764 -74.3600 168° South 158 182 7,000  Level Boston Center
Fri 06:00:40 PM 43.4372 -74.3217 145° Southeast 158 182 7,000  Level Boston Center
Fri 06:01:30 PM 43.4044 -74.2861 142° Southeast 174 200 7,000  Level Boston Center
Fri 06:02:18 PM 43.3697 -74.2594 151° Southeast 171 197 7,000  Level Boston Center
Fri 06:03:21 PM 43.3283 -74.2297 152° Southeast 166 191 7,000  Level Boston Center
Fri 06:04:16 PM 43.2914 -74.2028 152° Southeast 165 190 7,000  Level Boston Center
Fri 06:05:16 PM 43.2500 -74.1789 157° South 164 189 7,000 -248 Level Boston Center
Fri 06:06:17 PM 43.2025 -74.1519 158° South 173 199 6,500 -344 Descending Boston Center
Fri 06:07:18 PM 43.1569 -74.1222 155° Southeast 184 212 6,300 -397 Descending Boston Center
Fri 06:08:18 PM 43.1117 -74.0869 150° Southeast 188 216 5,700 -522 Descending Boston Center
Fri 06:09:13 PM 43.0706 -74.0544 150° Southeast 189 217 5,300 -365 Descending Boston Center
Fri 06:10:13 PM 43.0250 -74.0247 154° Southeast 182 209 5,000 -446 Descending Boston Center
Fri 06:11:41 PM 42.9525 -74.0003 166° South 181 208 4,200 -469 Descending Boston Center
Fri 06:12:21 PM 42.9192 -73.9939 172° South 180 207 4,000 -511 Descending Boston Center
Fri 06:13:15 PM 42.8736 -73.9783 166° South 181 208 3,400 -526 Descending Boston Center
Fri 06:14:15 PM 42.8239 -73.9575 163° South 187 215 3,000 -263 Descending Boston Center
Fri 06:15:09 PM 42.7844 -73.9394 161° South 170 196 2,900 -50 Descending Boston Center
Fri 06:16:16 PM 42.7389 -73.9131 157° South 159 183 2,900 50 Level Boston Center
Fri 06:17:10 PM 42.7039 -73.8894 154° Southeast 149 171 3,000 -417 Climbing Boston Center
Fri 06:18:11 PM 42.6794 -73.8353 122° Southeast 161 185 2,100 -828 Descending Boston Center
Fri 06:19:06 PM 42.6964 -73.8072 51° Northeast 136 157 1,400 -879 Descending Boston Center
Fri 06:20:07 PM 42.7339 -73.8081 359° North 121 139 400 -984 Descending Boston Center

Login

Don't have an account? Register now (free) for customized features, flight alerts, and more!